Time;durP1;ratioP1;P1;durP2;ratioP2;P2;SDS_P1;SDS_P2;PMS_P1;PMS_P2;Temp;Humidity;BMP_temperature;BMP_pressure;BME280_temperature;BME280_humidity;BME280_pressure;Samples;Min_cycle;Max_cycle;Signal;HPM_P1;HPM_P2
2020/12/11 00:00:39;;;;;;;63.70;34.07;;;;;;;;;;4994737;28;20183;-82
2020/12/11 00:03:11;;;;;;;76.50;37.73;;;;;;;;;;4994391;28;20208;-83
2020/12/11 00:05:42;;;;;;;68.43;36.33;;;;;;;;;;4994366;28;20182;-82
2020/12/11 00:08:14;;;;;;;60.47;34.70;;;;;;;;;;4993120;28;20181;-82
2020/12/11 00:10:46;;;;;;;65.53;36.93;;;;;;;;;;4994652;28;20170;-83
2020/12/11 00:13:15;;;;;;;68.37;36.73;;;;;;;;;;4994470;28;20231;-83
2020/12/11 00:15:44;;;;;;;60.87;35.20;;;;;;;;;;4994058;28;20262;-82
2020/12/11 00:18:16;;;;;;;66.23;35.57;;;;;;;;;;4994256;28;20203;-83
2020/12/11 00:20:45;;;;;;;66.70;35.13;;;;;;;;;;4994543;28;20179;-82
2020/12/11 00:23:16;;;;;;;62.07;35.27;;;;;;;;;;4994191;28;20193;-82
2020/12/11 00:25:45;;;;;;;77.63;34.80;;;;;;;;;;4994037;28;20261;-82
2020/12/11 00:28:12;;;;;;;71.17;37.07;;;;;;;;;;4992912;28;20655;-83
2020/12/11 00:30:45;;;;;;;71.03;36.10;;;;;;;;;;4993118;28;20226;-82
2020/12/11 00:33:16;;;;;;;63.17;35.10;;;;;;;;;;4994187;28;20210;-85
2020/12/11 00:35:46;;;;;;;69.13;34.30;;;;;;;;;;4994144;28;20178;-83
2020/12/11 00:38:16;;;;;;;68.90;34.40;;;;;;;;;;4994362;28;20208;-84
2020/12/11 00:40:48;;;;;;;66.63;35.53;;;;;;;;;;4993328;28;20243;-82
2020/12/11 00:43:20;;;;;;;62.73;34.50;;;;;;;;;;4992815;28;20198;-82
2020/12/11 00:45:50;;;;;;;67.20;33.47;;;;;;;;;;4994288;28;20176;-82
2020/12/11 00:48:21;;;;;;;65.63;35.10;;;;;;;;;;4994287;28;20173;-82
2020/12/11 00:50:47;;;;;;;66.07;33.17;;;;;;;;;;4994125;28;20258;-83
2020/12/11 00:53:17;;;;;;;67.13;35.23;;;;;;;;;;4995385;28;20200;-82
2020/12/11 00:55:46;;;;;;;62.30;34.30;;;;;;;;;;4995217;28;20714;-82
2020/12/11 00:58:21;;;;;;;75.63;34.77;;;;;;;;;;4998986;28;20180;-82
2020/12/11 01:00:48;;;;;;;64.03;32.93;;;;;;;;;;4998067;28;20176;-83
2020/12/11 01:03:17;;;;;;;60.87;34.50;;;;;;;;;;4997689;28;20198;-82
2020/12/11 01:05:46;;;;;;;69.30;35.23;;;;;;;;;;4997744;28;20177;-82
2020/12/11 01:08:15;;;;;;;61.97;37.77;;;;;;;;;;4997536;28;20237;-83
2020/12/11 01:10:41;;;;;;;73.20;37.50;;;;;;;;;;4997264;28;20643;-82
2020/12/11 01:13:08;;;;;;;69.03;36.00;;;;;;;;;;4996018;28;20314;-82
2020/12/11 01:15:35;;;;;;;70.53;37.57;;;;;;;;;;4996097;28;20201;-82
2020/12/11 01:18:06;;;;;;;72.63;38.80;;;;;;;;;;4997420;28;20206;-82
2020/12/11 01:20:35;;;;;;;59.73;35.67;;;;;;;;;;4997201;28;20184;-82
2020/12/11 01:23:06;;;;;;;68.07;36.20;;;;;;;;;;4997246;28;20233;-82
2020/12/11 01:25:33;;;;;;;62.17;34.87;;;;;;;;;;4997216;28;20559;-82
2020/12/11 01:28:04;;;;;;;63.10;36.43;;;;;;;;;;4996953;28;20179;-82
2020/12/11 01:30:33;;;;;;;62.93;36.10;;;;;;;;;;4995789;28;20192;-82
2020/12/11 01:33:05;;;;;;;62.53;35.63;;;;;;;;;;4995480;28;20307;-85
2020/12/11 01:35:37;;;;;;;58.23;34.47;;;;;;;;;;4995551;28;20236;-82
2020/12/11 01:38:08;;;;;;;68.23;36.47;;;;;;;;;;4997281;28;20168;-83
2020/12/11 01:40:40;;;;;;;70.87;38.43;;;;;;;;;;4996832;28;20178;-82
2020/12/11 01:43:12;;;;;;;65.50;38.90;;;;;;;;;;4995569;28;20237;-82
2020/12/11 01:45:42;;;;;;;69.10;39.97;;;;;;;;;;4995563;28;20178;-83
2020/12/11 01:48:15;;;;;;;61.97;36.77;;;;;;;;;;4995347;28;20562;-82
2020/12/11 01:50:41;;;;;;;72.70;38.63;;;;;;;;;;4997058;28;20178;-82
2020/12/11 01:53:10;;;;;;;74.73;40.17;;;;;;;;;;4996589;28;20210;-82
2020/12/11 01:55:41;;;;;;;85.97;40.80;;;;;;;;;;4995158;28;20211;-84
2020/12/11 01:58:21;;;;;;;80.60;39.60;;;;;;;;;;4997517;28;20633;-83
2020/12/11 02:00:50;;;;;;;81.57;40.67;;;;;;;;;;4997685;28;20183;-85
2020/12/11 02:03:16;;;;;;;83.27;37.80;;;;;;;;;;4995204;28;20211;-81
2020/12/11 02:05:46;;;;;;;84.23;41.70;;;;;;;;;;4996607;28;20179;-82
2020/12/11 02:08:17;;;;;;;78.10;39.57;;;;;;;;;;4996385;28;20197;-83
2020/12/11 02:10:46;;;;;;;90.83;41.50;;;;;;;;;;4996416;28;20178;-82
2020/12/11 02:13:15;;;;;;;75.53;40.07;;;;;;;;;;4996059;28;20217;-82
2020/12/11 02:15:41;;;;;;;89.13;39.43;;;;;;;;;;4996429;28;20196;-82
2020/12/11 02:18:12;;;;;;;80.00;36.67;;;;;;;;;;4996758;28;20180;-82
2020/12/11 02:20:42;;;;;;;82.33;36.10;;;;;;;;;;4996291;28;20268;-82
2020/12/11 02:23:11;;;;;;;80.27;37.37;;;;;;;;;;4994795;28;20231;-82
2020/12/11 02:25:42;;;;;;;81.03;36.27;;;;;;;;;;4994709;28;20182;-82
2020/12/11 02:28:12;;;;;;;81.67;36.03;;;;;;;;;;4996083;28;20199;-84
2020/12/11 02:30:41;;;;;;;79.07;36.63;;;;;;;;;;4995966;28;20180;-84
2020/12/11 02:33:11;;;;;;;75.33;36.50;;;;;;;;;;4995965;28;20268;-83
2020/12/11 02:35:46;;;;;;;87.70;37.73;;;;;;;;;;4994834;28;20180;-82
2020/12/11 02:38:16;;;;;;;83.10;38.07;;;;;;;;;;4994483;28;20183;-83
2020/12/11 02:41:01;;;;;;;77.07;37.17;;;;;;;;;;4994413;28;20182;-82
2020/12/11 02:43:36;;;;;;;89.23;37.53;;;;;;;;;;4995626;28;20195;-83
2020/12/11 02:46:06;;;;;;;80.47;35.07;;;;;;;;;;4994492;28;20636;-82
2020/12/11 02:48:37;;;;;;;94.80;39.67;;;;;;;;;;4995758;28;20189;-84
2020/12/11 02:51:08;;;;;;;89.67;37.00;;;;;;;;;;4995748;28;20267;-83
2020/12/11 02:53:39;;;;;;;80.03;37.87;;;;;;;;;;4994241;28;20247;-82
2020/12/11 02:56:11;;;;;;;83.23;37.13;;;;;;;;;;4995501;28;20177;-83
2020/12/11 02:58:42;;;;;;;87.13;38.47;;;;;;;;;;4995377;28;20638;-85
2020/12/11 03:01:12;;;;;;;80.60;37.87;;;;;;;;;;4994246;28;20175;-82
2020/12/11 03:03:42;;;;;;;81.47;35.53;;;;;;;;;;4995653;28;20549;-83
2020/12/11 03:06:12;;;;;;;85.13;37.43;;;;;;;;;;4995231;28;20190;-82
2020/12/11 03:08:42;;;;;;;94.77;39.27;;;;;;;;;;4995607;28;20183;-82
2020/12/11 03:11:12;;;;;;;87.50;38.70;;;;;;;;;;4995082;28;20178;-83
2020/12/11 03:13:38;;;;;;;89.23;38.40;;;;;;;;;;4994903;28;20352;-83
2020/12/11 03:16:09;;;;;;;82.60;39.33;;;;;;;;;;4994029;28;20187;-82
2020/12/11 03:18:35;;;;;;;93.73;39.60;;;;;;;;;;4993563;28;20181;-83
2020/12/11 03:21:04;;;;;;;82.13;37.77;;;;;;;;;;4994944;28;20174;-82
2020/12/11 03:23:34;;;;;;;81.70;39.40;;;;;;;;;;4995139;28;20202;-82
2020/12/11 03:26:08;;;;;;;79.53;38.43;;;;;;;;;;4994857;28;20217;-82
2020/12/11 03:28:40;;;;;;;78.03;36.70;;;;;;;;;;4995133;28;20188;-82
2020/12/11 03:31:09;;;;;;;86.77;40.10;;;;;;;;;;4995024;28;20178;-82
2020/12/11 03:33:42;;;;;;;78.50;37.50;;;;;;;;;;4994779;28;20220;-82
2020/12/11 03:36:14;;;;;;;78.90;37.90;;;;;;;;;;4995013;28;20172;-83
2020/12/11 03:38:46;;;;;;;83.73;36.50;;;;;;;;;;4994932;28;20639;-82
2020/12/11 03:41:20;;;;;;;84.93;37.67;;;;;;;;;;4995181;28;20183;-82
2020/12/11 03:43:56;;;;;;;77.23;36.93;;;;;;;;;;4993475;28;20207;-82
2020/12/11 03:46:25;;;;;;;77.00;34.37;;;;;;;;;;4994613;28;20615;-83
2020/12/11 03:48:52;;;;;;;67.50;34.00;;;;;;;;;;4994859;28;20209;-82
2020/12/11 03:51:25;;;;;;;75.27;38.73;;;;;;;;;;4994772;28;20653;-82
2020/12/11 03:53:58;;;;;;;70.00;35.20;;;;;;;;;;4993168;28;20692;-82
2020/12/11 03:56:30;;;;;;;74.03;36.77;;;;;;;;;;4994440;28;20181;-82
2020/12/11 03:58:59;;;;;;;64.90;35.43;;;;;;;;;;4993166;28;20173;-82
2020/12/11 04:01:29;;;;;;;69.40;34.63;;;;;;;;;;4994601;28;20170;-82
2020/12/11 04:04:05;;;;;;;75.07;33.63;;;;;;;;;;4994491;28;20179;-83
2020/12/11 04:06:38;;;;;;;66.10;34.33;;;;;;;;;;4993540;28;20175;-82
2020/12/11 04:09:05;;;;;;;66.60;33.70;;;;;;;;;;4994147;28;20180;-82
2020/12/11 04:11:38;;;;;;;68.07;33.63;;;;;;;;;;4994490;28;20180;-82
2020/12/11 04:14:10;;;;;;;71.93;31.90;;;;;;;;;;4994816;28;20342;-82
2020/12/11 04:16:36;;;;;;;65.93;33.70;;;;;;;;;;4994273;28;20178;-82
2020/12/11 04:19:08;;;;;;;64.83;33.47;;;;;;;;;;4993045;28;20261;-82
2020/12/11 04:21:38;;;;;;;59.93;31.20;;;;;;;;;;4994074;28;20174;-83
2020/12/11 04:24:07;;;;;;;59.23;31.27;;;;;;;;;;4994716;28;20175;-83
2020/12/11 04:26:42;;;;;;;59.30;33.50;;;;;;;;;;4993945;28;20249;-82
2020/12/11 04:29:12;;;;;;;66.50;33.70;;;;;;;;;;4994423;28;20262;-83
2020/12/11 04:31:41;;;;;;;69.00;33.53;;;;;;;;;;4994415;28;20287;-83
2020/12/11 04:34:12;;;;;;;63.20;34.93;;;;;;;;;;4996700;28;20206;-82
2020/12/11 04:36:38;;;;;;;63.30;34.63;;;;;;;;;;4996712;28;20259;-82
2020/12/11 04:39:10;;;;;;;61.83;33.10;;;;;;;;;;4998496;28;20182;-83
2020/12/11 04:41:46;;;;;;;62.33;34.30;;;;;;;;;;4996765;28;20174;-82
2020/12/11 04:44:13;;;;;;;61.77;34.17;;;;;;;;;;4996797;28;20646;-82
2020/12/11 04:46:45;;;;;;;65.27;33.87;;;;;;;;;;4998134;28;20643;-83
2020/12/11 04:49:16;;;;;;;59.17;32.50;;;;;;;;;;4997983;28;20178;-82
2020/12/11 04:51:50;;;;;;;60.27;34.43;;;;;;;;;;4996564;28;20179;-82
2020/12/11 04:54:24;;;;;;;62.20;34.63;;;;;;;;;;4998047;28;20162;-82
2020/12/11 04:56:58;;;;;;;58.80;32.40;;;;;;;;;;4997738;28;20170;-82
2020/12/11 04:59:25;;;;;;;63.23;33.57;;;;;;;;;;4996135;28;20224;-82
2020/12/11 05:01:58;;;;;;;58.60;34.30;;;;;;;;;;4996756;28;20548;-82
2020/12/11 05:04:30;;;;;;;63.93;33.67;;;;;;;;;;4997778;28;20175;-82
2020/12/11 05:07:06;;;;;;;62.97;34.27;;;;;;;;;;4997465;28;20185;-82
2020/12/11 05:09:38;;;;;;;59.33;32.67;;;;;;;;;;4996267;28;20202;-83
2020/12/11 05:12:16;;;;;;;61.60;35.70;;;;;;;;;;4997543;28;20193;-82
2020/12/11 05:14:50;;;;;;;50.73;32.60;;;;;;;;;;4996832;28;20533;-82
2020/12/11 05:17:27;;;;;;;57.57;31.83;;;;;;;;;;4996166;28;20223;-82
2020/12/11 05:19:59;;;;;;;52.07;32.27;;;;;;;;;;4997678;28;20187;-82
2020/12/11 05:22:31;;;;;;;63.37;35.57;;;;;;;;;;4997056;28;20232;-82
2020/12/11 05:25:01;;;;;;;62.17;38.03;;;;;;;;;;4996096;28;20183;-82
2020/12/11 05:27:39;;;;;;;60.57;37.60;;;;;;;;;;4997290;28;20184;-82
2020/12/11 05:30:12;;;;;;;60.87;36.73;;;;;;;;;;4997411;28;20205;-82
2020/12/11 05:32:49;;;;;;;49.07;34.73;;;;;;;;;;5020429;23;20780;-84
2020/12/11 05:35:26;;;;;;;54.20;36.83;;;;;;;;;;4996369;28;20178;-84
2020/12/11 05:38:01;;;;;;;63.93;36.77;;;;;;;;;;4994921;28;20175;-84
2020/12/11 05:40:31;;;;;;;53.77;34.90;;;;;;;;;;4994879;28;20183;-84
2020/12/11 05:43:12;;;;;;;62.03;35.27;;;;;;;;;;4995557;28;20570;-84
2020/12/11 05:45:42;;;;;;;62.07;38.27;;;;;;;;;;4996254;28;20304;-84
2020/12/11 05:48:12;;;;;;;53.10;33.70;;;;;;;;;;4996215;28;20514;-84
2020/12/11 05:50:41;;;;;;;54.90;33.90;;;;;;;;;;4995972;28;20188;-84
2020/12/11 05:53:12;;;;;;;56.43;34.10;;;;;;;;;;4995819;28;20619;-84
2020/12/11 05:55:41;;;;;;;53.60;34.90;;;;;;;;;;4994609;28;20181;-84
2020/12/11 05:58:12;;;;;;;56.13;33.73;;;;;;;;;;4995891;28;20198;-84
2020/12/11 06:00:41;;;;;;;55.60;33.33;;;;;;;;;;4994605;28;20180;-84
2020/12/11 06:03:12;;;;;;;49.90;32.60;;;;;;;;;;4995800;28;20197;-84
2020/12/11 06:05:42;;;;;;;51.60;34.80;;;;;;;;;;4995828;28;20290;-84
2020/12/11 06:08:11;;;;;;;55.33;34.53;;;;;;;;;;4994437;28;20198;-84
2020/12/11 06:10:42;;;;;;;53.07;35.33;;;;;;;;;;4994418;28;20179;-84
2020/12/11 06:13:12;;;;;;;58.83;35.70;;;;;;;;;;4994143;28;20243;-84
2020/12/11 06:15:48;;;;;;;48.23;33.27;;;;;;;;;;4995990;28;20205;-84
2020/12/11 06:18:23;;;;;;;53.80;36.87;;;;;;;;;;4994223;28;20184;-84
2020/12/11 06:20:58;;;;;;;52.83;34.73;;;;;;;;;;4994316;28;20654;-84
2020/12/11 06:23:31;;;;;;;52.60;34.23;;;;;;;;;;4994292;28;20201;-84
2020/12/11 06:26:04;;;;;;;57.43;36.20;;;;;;;;;;4994070;28;20182;-84
2020/12/11 06:28:39;;;;;;;49.87;33.80;;;;;;;;;;4994029;28;20176;-84
2020/12/11 06:31:12;;;;;;;52.20;37.00;;;;;;;;;;4994116;28;20249;-83
2020/12/11 06:33:45;;;;;;;63.10;37.00;;;;;;;;;;4993873;28;20562;-84
2020/12/11 06:36:16;;;;;;;55.43;35.83;;;;;;;;;;4993921;28;20175;-84
2020/12/11 06:38:44;;;;;;;55.43;35.97;;;;;;;;;;4995436;28;20175;-84
2020/12/11 06:41:17;;;;;;;51.40;34.30;;;;;;;;;;4995244;28;20166;-84
2020/12/11 06:43:51;;;;;;;49.93;36.03;;;;;;;;;;4995272;28;20199;-84
2020/12/11 06:46:24;;;;;;;56.90;37.10;;;;;;;;;;4993798;28;20168;-84
2020/12/11 06:49:12;;;;;;;52.10;35.93;;;;;;;;;;4995271;28;20556;-84
2020/12/11 06:51:47;;;;;;;51.87;35.50;;;;;;;;;;4993875;28;20183;-84
2020/12/11 06:54:25;;;;;;;56.67;36.77;;;;;;;;;;4993913;28;20221;-84
2020/12/11 06:56:55;;;;;;;57.63;37.00;;;;;;;;;;4993838;28;20170;-83
2020/12/11 06:59:28;;;;;;;56.30;35.73;;;;;;;;;;4993801;28;20175;-84
2020/12/11 07:02:17;;;;;;;59.17;36.20;;;;;;;;;;4995121;28;20175;-84
2020/12/11 07:04:44;;;;;;;56.30;37.30;;;;;;;;;;4993989;28;20655;-84
2020/12/11 07:07:13;;;;;;;60.17;36.17;;;;;;;;;;4993450;28;20315;-84
2020/12/11 07:09:42;;;;;;;50.90;33.60;;;;;;;;;;4993373;28;20266;-84
2020/12/11 07:12:12;;;;;;;63.47;34.27;;;;;;;;;;4993213;28;20179;-84
2020/12/11 07:14:45;;;;;;;59.23;35.83;;;;;;;;;;4994614;28;20198;-84
2020/12/11 07:17:26;;;;;;;50.73;34.67;;;;;;;;;;4994815;28;20173;-84
2020/12/11 07:19:57;;;;;;;60.57;37.37;;;;;;;;;;4994541;28;20170;-84
2020/12/11 07:22:29;;;;;;;58.03;35.00;;;;;;;;;;4993051;28;20313;-84
2020/12/11 07:24:57;;;;;;;63.90;37.30;;;;;;;;;;4994618;28;20180;-84
2020/12/11 07:27:34;;;;;;;59.17;36.53;;;;;;;;;;4992985;28;20177;-84
2020/12/11 07:30:09;;;;;;;61.43;36.17;;;;;;;;;;4993023;28;20177;-84
2020/12/11 07:32:40;;;;;;;56.07;34.93;;;;;;;;;;4992793;28;20256;-84
2020/12/11 07:35:12;;;;;;;66.70;38.60;;;;;;;;;;4993346;28;20236;-84
2020/12/11 07:37:59;;;;;;;54.57;35.77;;;;;;;;;;4993113;28;20181;-84
2020/12/11 07:40:30;;;;;;;56.50;35.00;;;;;;;;;;4994424;28;20168;-84
2020/12/11 07:43:05;;;;;;;63.23;36.70;;;;;;;;;;4992761;28;20205;-84
2020/12/11 07:45:34;;;;;;;55.63;36.17;;;;;;;;;;4994217;28;20185;-84
2020/12/11 07:48:09;;;;;;;65.83;37.03;;;;;;;;;;4993973;28;20177;-84
2020/12/11 07:50:41;;;;;;;58.97;39.33;;;;;;;;;;4992658;28;20642;-84
2020/12/11 07:53:12;;;;;;;64.40;38.97;;;;;;;;;;4993931;28;20206;-84
2020/12/11 07:55:42;;;;;;;69.30;37.73;;;;;;;;;;4992676;28;20174;-84
2020/12/11 07:58:12;;;;;;;63.37;38.53;;;;;;;;;;4993938;28;20202;-84
2020/12/11 08:00:42;;;;;;;70.97;38.87;;;;;;;;;;4992574;28;20212;-84
2020/12/11 08:03:15;;;;;;;61.03;38.30;;;;;;;;;;4992468;28;20202;-84
2020/12/11 08:05:45;;;;;;;71.17;40.87;;;;;;;;;;4994169;28;20182;-84
2020/12/11 08:08:14;;;;;;;63.20;36.77;;;;;;;;;;4997999;28;20170;-84
2020/12/11 08:10:42;;;;;;;69.23;39.30;;;;;;;;;;4998104;28;20186;-84
2020/12/11 08:13:14;;;;;;;67.73;38.50;;;;;;;;;;4996383;28;20372;-84
2020/12/11 08:15:47;;;;;;;66.90;38.83;;;;;;;;;;4996514;28;20195;-84
2020/12/11 08:18:21;;;;;;;67.73;38.90;;;;;;;;;;4996500;28;20635;-84
2020/12/11 08:20:55;;;;;;;71.40;34.67;;;;;;;;;;4997793;28;20198;-84
2020/12/11 08:23:36;;;;;;;63.80;35.77;;;;;;;;;;4997868;28;20263;-84
2020/12/11 08:26:21;;;;;;;68.30;38.07;;;;;;;;;;4996448;28;20172;-84
2020/12/11 08:28:51;;;;;;;65.77;35.90;;;;;;;;;;4996432;28;20549;-84
2020/12/11 08:31:26;;;;;;;63.87;32.63;;;;;;;;;;4997612;28;20178;-84
2020/12/11 08:34:16;;;;;;;68.37;37.70;;;;;;;;;;4995850;28;20258;-84
2020/12/11 08:36:47;;;;;;;65.03;35.17;;;;;;;;;;4996269;28;20618;-84
2020/12/11 08:39:23;;;;;;;61.03;33.70;;;;;;;;;;4996070;28;20178;-84
2020/12/11 08:45:14;;;;;;;86.63;38.80;;;;;;;;;;4997557;28;20169;-84
2020/12/11 08:50:40;;;;;;;67.47;34.63;;;;;;;;;;4997863;28;20174;-84
2020/12/11 08:53:11;;;;;;;83.03;42.13;;;;;;;;;;4996410;28;20211;-84
2020/12/11 08:55:42;;;;;;;71.73;40.37;;;;;;;;;;4995773;28;20263;-84
2020/12/11 08:58:11;;;;;;;73.73;38.00;;;;;;;;;;4995783;28;20192;-84
2020/12/11 09:00:42;;;;;;;85.53;35.33;;;;;;;;;;4997136;28;20225;-84
2020/12/11 09:03:12;;;;;;;72.10;36.97;;;;;;;;;;4995542;28;20654;-84
2020/12/11 09:05:45;;;;;;;75.83;37.47;;;;;;;;;;4995620;28;20674;-84
2020/12/11 09:08:16;;;;;;;68.93;37.33;;;;;;;;;;4997068;28;20175;-84
2020/12/11 09:10:50;;;;;;;75.17;38.50;;;;;;;;;;4997299;28;20206;-84
2020/12/11 09:13:16;;;;;;;77.63;37.53;;;;;;;;;;4995344;28;20211;-84
2020/12/11 09:15:43;;;;;;;76.53;38.93;;;;;;;;;;4996858;28;20183;-84
2020/12/11 09:18:14;;;;;;;66.37;32.57;;;;;;;;;;4995648;28;20279;-84
2020/12/11 09:20:44;;;;;;;81.83;37.87;;;;;;;;;;4995392;28;20651;-84
2020/12/11 09:23:15;;;;;;;68.30;36.93;;;;;;;;;;4995131;28;20198;-84
2020/12/11 09:25:43;;;;;;;86.27;38.97;;;;;;;;;;4995265;28;20532;-84
2020/12/11 09:28:21;;;;;;;69.47;38.30;;;;;;;;;;4996457;28;20178;-84
2020/12/11 09:30:49;;;;;;;74.97;36.23;;;;;;;;;;4996594;28;20170;-84
2020/12/11 09:33:25;;;;;;;80.13;39.73;;;;;;;;;;4994811;28;20218;-84
2020/12/11 09:35:58;;;;;;;89.33;43.93;;;;;;;;;;4995014;28;20261;-84
2020/12/11 09:38:32;;;;;;;91.33;40.23;;;;;;;;;;4996367;28;20154;-84
2020/12/11 09:41:04;;;;;;;94.27;42.87;;;;;;;;;;4995121;28;20181;-84
2020/12/11 09:48:55;;;;;;;85.17;43.10;;;;;;;;;;4995952;28;20189;-82
2020/12/11 09:54:14;;;;;;;77.17;39.23;;;;;;;;;;4995920;28;20205;-82
2020/12/11 09:56:43;;;;;;;77.87;37.23;;;;;;;;;;4996540;28;20163;-82
2020/12/11 09:59:17;;;;;;;80.47;38.87;;;;;;;;;;4994501;28;20179;-82
2020/12/11 10:04:26;;;;;;;79.77;41.30;;;;;;;;;;4996219;28;20207;-82
2020/12/11 10:06:57;;;;;;;90.23;42.00;;;;;;;;;;4995546;28;20189;-83
2020/12/11 10:09:30;;;;;;;81.83;43.27;;;;;;;;;;4994294;28;20221;-84
2020/12/11 10:12:05;;;;;;;75.53;40.17;;;;;;;;;;4994874;28;20182;-83
2020/12/11 10:14:33;;;;;;;75.53;38.03;;;;;;;;;;4994193;28;20207;-84
2020/12/11 10:17:09;;;;;;;79.60;39.37;;;;;;;;;;4994130;28;20174;-84
2020/12/11 10:19:41;;;;;;;84.07;39.57;;;;;;;;;;4995650;28;20173;-84
2020/12/11 10:22:12;;;;;;;78.90;39.03;;;;;;;;;;4994142;28;20181;-84
2020/12/11 10:24:42;;;;;;;77.73;36.37;;;;;;;;;;4994068;28;20198;-84
2020/12/11 10:27:09;;;;;;;74.60;37.83;;;;;;;;;;4994367;28;20186;-84
2020/12/11 10:29:42;;;;;;;69.17;36.90;;;;;;;;;;4994190;28;20553;-84
2020/12/11 10:32:15;;;;;;;75.97;37.93;;;;;;;;;;4993973;28;20185;-84
2020/12/11 10:34:43;;;;;;;74.90;38.67;;;;;;;;;;4995146;28;20183;-84
2020/12/11 10:37:12;;;;;;;70.70;36.50;;;;;;;;;;4993910;28;20175;-84
2020/12/11 10:39:44;;;;;;;75.33;35.97;;;;;;;;;;4995290;28;20187;-84
2020/12/11 10:42:13;;;;;;;70.23;37.07;;;;;;;;;;4995352;28;20169;-84
2020/12/11 10:44:41;;;;;;;66.70;36.07;;;;;;;;;;4993589;28;20238;-84
2020/12/11 10:47:12;;;;;;;70.00;39.23;;;;;;;;;;4994948;28;20177;-84
2020/12/11 10:49:42;;;;;;;73.40;33.93;;;;;;;;;;4995655;28;20634;-84
2020/12/11 10:52:12;;;;;;;71.67;39.10;;;;;;;;;;4994803;28;20665;-84
2020/12/11 10:54:42;;;;;;;71.50;38.23;;;;;;;;;;4993570;28;20280;-84
2020/12/11 10:57:12;;;;;;;77.83;38.00;;;;;;;;;;4993460;28;20656;-83
2020/12/11 10:59:43;;;;;;;71.07;37.60;;;;;;;;;;4994820;28;20275;-86
2020/12/11 11:02:14;;;;;;;64.53;34.53;;;;;;;;;;4993117;28;20234;-86
2020/12/11 11:04:45;;;;;;;70.70;36.20;;;;;;;;;;4993028;28;20203;-86
2020/12/11 11:07:19;;;;;;;67.43;35.73;;;;;;;;;;4993118;28;20174;-86
2020/12/11 11:13:01;;;;;;;65.23;33.00;;;;;;;;;;4978632;28;20213;-85
2020/12/11 11:28:49;;;;;;;71.33;33.47;;;;;;;;;;4994276;28;20669;-86
2020/12/11 11:31:21;;;;;;;64.63;33.17;;;;;;;;;;4992837;28;20181;-86
2020/12/11 11:33:55;;;;;;;69.27;32.70;;;;;;;;;;4992697;28;20218;-86
2020/12/11 11:36:28;;;;;;;67.00;33.83;;;;;;;;;;4994095;28;20168;-87
2020/12/11 11:39:00;;;;;;;67.67;32.10;;;;;;;;;;4992736;28;20184;-87
2020/12/11 11:41:47;;;;;;;69.33;34.07;;;;;;;;;;4992188;28;20274;-87
2020/12/11 11:44:38;;;;;;;74.90;35.33;;;;;;;;;;4992726;28;20233;-87
2020/12/11 11:47:09;;;;;;;64.43;33.57;;;;;;;;;;4992590;28;20542;-87
2020/12/11 11:52:45;;;;;;;60.33;34.13;;;;;;;;;;4993792;28;20250;-87
2020/12/11 11:55:15;;;;;;;72.07;35.10;;;;;;;;;;4994581;28;20171;-87
2020/12/11 11:57:43;;;;;;;70.00;35.13;;;;;;;;;;4994242;28;20177;-86
2020/12/11 12:00:11;;;;;;;67.73;35.40;;;;;;;;;;4994461;28;20179;-87
2020/12/11 12:02:37;;;;;;;68.53;35.40;;;;;;;;;;4993235;28;20209;-87
2020/12/11 12:05:05;;;;;;;65.13;33.57;;;;;;;;;;4995483;28;20536;-87
2020/12/11 12:07:33;;;;;;;63.73;32.70;;;;;;;;;;4993471;28;20728;-86
2020/12/11 12:10:03;;;;;;;69.83;34.37;;;;;;;;;;4992803;28;20184;-87
2020/12/11 12:12:37;;;;;;;69.10;35.00;;;;;;;;;;4992816;28;20223;-87
2020/12/11 12:15:12;;;;;;;57.93;32.63;;;;;;;;;;4992769;28;20176;-87
2020/12/11 12:17:55;;;;;;;73.27;34.80;;;;;;;;;;4993990;28;20179;-87
2020/12/11 12:20:32;;;;;;;61.73;34.40;;;;;;;;;;4993199;28;20179;-87
2020/12/11 12:28:52;;;;;;;66.93;34.10;;;;;;;;;;4993797;28;20175;-87
2020/12/11 12:31:15;;;;;;;68.97;35.97;;;;;;;;;;4993849;28;20182;-87
2020/12/11 12:36:57;;;;;;;62.47;33.50;;;;;;;;;;4994248;28;20215;-87
2020/12/11 12:39:37;;;;;;;60.37;32.33;;;;;;;;;;4992326;28;20180;-86
2020/12/11 12:42:39;;;;;;;60.43;34.27;;;;;;;;;;4994185;28;20604;-87
2020/12/11 12:45:07;;;;;;;63.53;33.17;;;;;;;;;;4993009;28;20643;-87
2020/12/11 12:47:41;;;;;;;68.60;35.63;;;;;;;;;;4992633;28;20650;-87
2020/12/11 12:50:10;;;;;;;63.30;36.30;;;;;;;;;;4993987;28;20182;-86
2020/12/11 12:52:42;;;;;;;72.23;38.20;;;;;;;;;;4995356;28;20345;-86
2020/12/11 12:55:10;;;;;;;73.67;37.90;;;;;;;;;;4996133;28;20187;-87
2020/12/11 12:57:42;;;;;;;67.33;34.90;;;;;;;;;;4996621;28;20192;-87
2020/12/11 13:00:20;;;;;;;68.40;37.37;;;;;;;;;;4996360;28;20178;-87
2020/12/11 13:03:24;;;;;;;62.87;34.30;;;;;;;;;;4996893;28;20208;-87
2020/12/11 13:05:44;;;;;;;66.13;34.57;;;;;;;;;;4996682;28;20187;-87
2020/12/11 13:08:16;;;;;;;72.00;36.43;;;;;;;;;;4996799;28;20180;-87
2020/12/11 13:10:47;;;;;;;67.73;36.33;;;;;;;;;;4995678;28;20174;-88
2020/12/11 13:13:21;;;;;;;68.33;34.90;;;;;;;;;;4995252;28;20275;-88
2020/12/11 13:15:52;;;;;;;71.33;33.00;;;;;;;;;;4995416;28;20188;-87
2020/12/11 13:18:24;;;;;;;62.80;33.20;;;;;;;;;;4995711;28;20523;-87
2020/12/11 13:20:55;;;;;;;66.57;35.57;;;;;;;;;;4995239;28;20178;-87
2020/12/11 13:26:20;;;;;;;67.07;34.43;;;;;;;;;;4996777;28;20197;-87
2020/12/11 13:28:47;;;;;;;56.60;32.47;;;;;;;;;;4995595;28;20187;-87
2020/12/11 13:31:20;;;;;;;59.90;33.37;;;;;;;;;;4995127;28;20185;-87
2020/12/11 13:33:47;;;;;;;57.20;30.80;;;;;;;;;;4995048;28;20215;-88
2020/12/11 13:36:19;;;;;;;60.23;34.90;;;;;;;;;;4995016;28;20668;-87
2020/12/11 13:38:51;;;;;;;66.17;33.50;;;;;;;;;;4994963;28;20705;-87
2020/12/11 13:41:17;;;;;;;66.03;33.23;;;;;;;;;;4995122;28;20178;-87
2020/12/11 13:43:51;;;;;;;67.00;33.33;;;;;;;;;;4996069;28;20693;-87
2020/12/11 13:46:25;;;;;;;66.10;33.97;;;;;;;;;;4996446;28;20189;-87
2020/12/11 13:48:58;;;;;;;70.07;34.53;;;;;;;;;;4994766;28;20643;-87
2020/12/11 13:51:27;;;;;;;60.07;33.27;;;;;;;;;;4996139;28;20188;-87
2020/12/11 13:53:55;;;;;;;63.87;34.70;;;;;;;;;;4994825;28;20217;-87
2020/12/11 13:56:22;;;;;;;64.67;33.83;;;;;;;;;;4994674;28;20180;-87
2020/12/11 13:58:50;;;;;;;74.50;38.30;;;;;;;;;;4994633;28;20601;-87
2020/12/11 14:01:17;;;;;;;69.93;38.33;;;;;;;;;;4994511;28;20272;-87
2020/12/11 14:03:44;;;;;;;70.23;35.13;;;;;;;;;;4995295;28;20199;-87
2020/12/11 14:06:10;;;;;;;65.77;32.70;;;;;;;;;;4995889;28;20190;-87
2020/12/11 14:08:38;;;;;;;77.33;38.23;;;;;;;;;;4995781;28;20174;-88
2020/12/11 14:11:10;;;;;;;67.17;34.57;;;;;;;;;;4994337;28;20181;-87
2020/12/11 14:13:39;;;;;;;49.37;31.40;;;;;;;;;;4994227;28;20220;-87
2020/12/11 14:16:07;;;;;;;70.33;37.60;;;;;;;;;;4994937;28;20190;-87
2020/12/11 14:18:40;;;;;;;68.43;32.20;;;;;;;;;;4994393;28;20188;-87
2020/12/11 14:21:24;;;;;;;63.60;33.17;;;;;;;;;;4994101;28;20174;-87
2020/12/11 14:23:51;;;;;;;71.70;35.80;;;;;;;;;;4994206;28;20569;-87
2020/12/11 14:26:24;;;;;;;67.03;33.40;;;;;;;;;;4993963;28;20184;-87
2020/12/11 14:28:59;;;;;;;73.73;33.67;;;;;;;;;;4995534;28;20624;-87
2020/12/11 14:31:30;;;;;;;61.17;34.30;;;;;;;;;;4994010;28;20208;-87
2020/12/11 14:34:02;;;;;;;68.50;34.63;;;;;;;;;;4993648;28;20228;-87
2020/12/11 14:36:35;;;;;;;69.33;35.03;;;;;;;;;;4995123;28;20651;-87
2020/12/11 14:39:10;;;;;;;73.63;34.37;;;;;;;;;;4995429;28;20234;-87
2020/12/11 14:41:46;;;;;;;64.63;33.33;;;;;;;;;;4995441;28;20228;-87
2020/12/11 14:44:27;;;;;;;61.43;29.47;;;;;;;;;;4993775;28;20202;-88
2020/12/11 14:46:59;;;;;;;75.63;35.27;;;;;;;;;;4995370;28;20186;-87
2020/12/11 14:49:31;;;;;;;61.43;33.90;;;;;;;;;;4995592;28;20624;-87
2020/12/11 14:52:05;;;;;;;61.17;29.83;;;;;;;;;;4994981;28;20180;-87
2020/12/11 14:54:38;;;;;;;55.70;29.80;;;;;;;;;;4993318;28;20211;-87
2020/12/11 14:57:12;;;;;;;62.43;33.30;;;;;;;;;;4993500;28;20178;-86
2020/12/11 14:59:42;;;;;;;72.13;34.13;;;;;;;;;;4993701;28;20647;-87
2020/12/11 15:02:12;;;;;;;61.43;30.67;;;;;;;;;;4993889;28;20248;-87
2020/12/11 15:04:42;;;;;;;60.73;30.77;;;;;;;;;;4993301;28;20618;-87
2020/12/11 15:07:11;;;;;;;63.20;31.67;;;;;;;;;;4993355;28;20175;-87
2020/12/11 15:09:42;;;;;;;57.97;31.30;;;;;;;;;;4993270;28;20190;-87
2020/12/11 15:12:12;;;;;;;69.57;34.43;;;;;;;;;;4993170;28;20177;-87
2020/12/11 15:14:41;;;;;;;54.97;28.00;;;;;;;;;;4992617;28;20214;-87
2020/12/11 15:17:14;;;;;;;63.80;31.50;;;;;;;;;;4993149;28;20181;-87
2020/12/11 15:19:46;;;;;;;59.87;32.30;;;;;;;;;;4993877;28;20172;-87
2020/12/11 15:22:16;;;;;;;64.03;34.93;;;;;;;;;;4993083;28;20557;-87
2020/12/11 15:24:46;;;;;;;59.90;32.10;;;;;;;;;;4992918;28;20657;-87
2020/12/11 15:27:16;;;;;;;72.80;32.83;;;;;;;;;;4993300;28;20266;-87
2020/12/11 15:29:48;;;;;;;57.73;31.17;;;;;;;;;;4992877;28;20579;-87